sensor_id;sensor_type;location;lat;lon;timestamp;P1;durP1;ratioP1;P2;durP2;ratioP2
18893;SDS011;9579;49.488;8.226;2023-05-10T00:02:35;2.13;;;1.30;;
18893;SDS011;9579;49.488;8.226;2023-05-10T00:05:25;1.58;;;1.13;;
18893;SDS011;9579;49.488;8.226;2023-05-10T00:08:13;1.25;;;1.25;;
18893;SDS011;9579;49.488;8.226;2023-05-10T00:11:01;1.98;;;1.20;;
18893;SDS011;9579;49.488;8.226;2023-05-10T00:13:48;1.20;;;1.17;;
18893;SDS011;9579;49.488;8.226;2023-05-10T00:16:43;1.33;;;1.20;;
18893;SDS011;9579;49.488;8.226;2023-05-10T00:19:31;1.57;;;1.20;;
18893;SDS011;9579;49.488;8.226;2023-05-10T00:22:26;1.58;;;1.10;;
18893;SDS011;9579;49.488;8.226;2023-05-10T00:25:19;1.58;;;1.30;;
18893;SDS011;9579;49.488;8.226;2023-05-10T00:28:16;1.92;;;1.42;;
18893;SDS011;9579;49.488;8.226;2023-05-10T00:31:06;1.20;;;1.15;;
18893;SDS011;9579;49.488;8.226;2023-05-10T00:33:58;1.20;;;1.20;;
18893;SDS011;9579;49.488;8.226;2023-05-10T00:36:45;2.35;;;1.20;;
18893;SDS011;9579;49.488;8.226;2023-05-10T00:39:32;1.33;;;1.23;;
18893;SDS011;9579;49.488;8.226;2023-05-10T00:42:19;1.40;;;1.30;;
18893;SDS011;9579;49.488;8.226;2023-05-10T00:45:08;1.33;;;1.30;;
18893;SDS011;9579;49.488;8.226;2023-05-10T00:47:55;1.42;;;1.33;;
18893;SDS011;9579;49.488;8.226;2023-05-10T00:50:42;1.55;;;1.38;;
18893;SDS011;9579;49.488;8.226;2023-05-10T00:53:30;1.17;;;1.17;;
18893;SDS011;9579;49.488;8.226;2023-05-10T00:56:18;1.55;;;1.30;;
18893;SDS011;9579;49.488;8.226;2023-05-10T00:59:08;2.05;;;1.35;;
18893;SDS011;9579;49.488;8.226;2023-05-10T01:01:57;1.40;;;1.30;;
18893;SDS011;9579;49.488;8.226;2023-05-10T01:04:44;1.20;;;1.20;;
18893;SDS011;9579;49.488;8.226;2023-05-10T01:07:31;2.45;;;1.33;;
18893;SDS011;9579;49.488;8.226;2023-05-10T01:10:18;2.25;;;1.20;;
18893;SDS011;9579;49.488;8.226;2023-05-10T01:13:02;1.15;;;1.15;;
18893;SDS011;9579;49.488;8.226;2023-05-10T01:15:59;1.20;;;1.20;;
18893;SDS011;9579;49.488;8.226;2023-05-10T01:18:50;1.10;;;1.10;;
18893;SDS011;9579;49.488;8.226;2023-05-10T01:21:38;1.45;;;1.10;;
18893;SDS011;9579;49.488;8.226;2023-05-10T01:35:43;1.50;;;1.40;;
18893;SDS011;9579;49.488;8.226;2023-05-10T01:38:38;1.10;;;1.10;;
18893;SDS011;9579;49.488;8.226;2023-05-10T01:41:33;1.40;;;1.30;;
18893;SDS011;9579;49.488;8.226;2023-05-10T01:44:29;1.30;;;1.23;;
18893;SDS011;9579;49.488;8.226;2023-05-10T01:47:24;2.00;;;1.23;;
18893;SDS011;9579;49.488;8.226;2023-05-10T01:50:22;1.20;;;1.20;;
18893;SDS011;9579;49.488;8.226;2023-05-10T01:53:14;2.00;;;1.40;;
18893;SDS011;9579;49.488;8.226;2023-05-10T01:56:47;1.10;;;1.10;;
18893;SDS011;9579;49.488;8.226;2023-05-10T01:59:43;1.57;;;1.30;;
18893;SDS011;9579;49.488;8.226;2023-05-10T02:02:37;1.40;;;1.30;;
18893;SDS011;9579;49.488;8.226;2023-05-10T02:05:27;2.20;;;1.40;;
18893;SDS011;9579;49.488;8.226;2023-05-10T02:08:18;1.65;;;1.30;;
18893;SDS011;9579;49.488;8.226;2023-05-10T02:11:08;1.23;;;1.23;;
18893;SDS011;9579;49.488;8.226;2023-05-10T02:13:58;1.60;;;1.50;;
18893;SDS011;9579;49.488;8.226;2023-05-10T02:16:47;1.33;;;1.23;;
18893;SDS011;9579;49.488;8.226;2023-05-10T02:19:38;1.27;;;1.17;;
18893;SDS011;9579;49.488;8.226;2023-05-10T02:22:28;1.77;;;1.40;;
18893;SDS011;9579;49.488;8.226;2023-05-10T02:25:17;1.40;;;1.30;;
18893;SDS011;9579;49.488;8.226;2023-05-10T02:28:06;1.63;;;1.40;;
18893;SDS011;9579;49.488;8.226;2023-05-10T02:30:52;2.15;;;1.40;;
18893;SDS011;9579;49.488;8.226;2023-05-10T02:33:40;1.77;;;1.60;;
18893;SDS011;9579;49.488;8.226;2023-05-10T02:36:37;1.50;;;1.40;;
18893;SDS011;9579;49.488;8.226;2023-05-10T02:39:26;1.80;;;1.50;;
18893;SDS011;9579;49.488;8.226;2023-05-10T02:42:24;1.92;;;1.50;;
18893;SDS011;9579;49.488;8.226;2023-05-10T02:45:19;1.50;;;1.40;;
18893;SDS011;9579;49.488;8.226;2023-05-10T02:48:08;1.70;;;1.60;;
18893;SDS011;9579;49.488;8.226;2023-05-10T02:50:56;1.40;;;1.40;;
18893;SDS011;9579;49.488;8.226;2023-05-10T02:53:46;1.77;;;1.60;;
18893;SDS011;9579;49.488;8.226;2023-05-10T02:56:36;1.70;;;1.60;;
18893;SDS011;9579;49.488;8.226;2023-05-10T03:06:38;2.37;;;2.03;;
18893;SDS011;9579;49.488;8.226;2023-05-10T03:09:23;1.90;;;1.80;;
18893;SDS011;9579;49.488;8.226;2023-05-10T03:12:11;2.00;;;1.90;;
18893;SDS011;9579;49.488;8.226;2023-05-10T03:18:15;2.17;;;1.70;;
18893;SDS011;9579;49.488;8.226;2023-05-10T03:21:05;1.98;;;1.88;;
18893;SDS011;9579;49.488;8.226;2023-05-10T03:23:58;2.10;;;1.77;;
18893;SDS011;9579;49.488;8.226;2023-05-10T03:26:51;2.00;;;1.77;;
18893;SDS011;9579;49.488;8.226;2023-05-10T03:29:42;2.10;;;1.90;;
18893;SDS011;9579;49.488;8.226;2023-05-10T03:32:31;2.30;;;1.70;;
18893;SDS011;9579;49.488;8.226;2023-05-10T03:35:20;1.90;;;1.80;;
18893;SDS011;9579;49.488;8.226;2023-05-10T03:38:05;2.00;;;1.90;;
18893;SDS011;9579;49.488;8.226;2023-05-10T03:41:01;2.03;;;1.87;;
18893;SDS011;9579;49.488;8.226;2023-05-10T03:43:48;2.00;;;1.90;;
18893;SDS011;9579;49.488;8.226;2023-05-10T03:46:35;2.15;;;1.98;;
18893;SDS011;9579;49.488;8.226;2023-05-10T03:49:22;2.13;;;1.87;;
18893;SDS011;9579;49.488;8.226;2023-05-10T03:52:07;2.20;;;2.00;;
18893;SDS011;9579;49.488;8.226;2023-05-10T03:54:54;2.08;;;1.98;;
18893;SDS011;9579;49.488;8.226;2023-05-10T03:57:42;2.20;;;2.10;;
18893;SDS011;9579;49.488;8.226;2023-05-10T04:00:29;3.07;;;2.07;;
18893;SDS011;9579;49.488;8.226;2023-05-10T04:03:16;2.90;;;2.00;;
18893;SDS011;9579;49.488;8.226;2023-05-10T04:06:04;2.77;;;2.20;;
18893;SDS011;9579;49.488;8.226;2023-05-10T04:08:54;2.50;;;2.33;;
18893;SDS011;9579;49.488;8.226;2023-05-10T04:11:41;2.23;;;2.00;;
18893;SDS011;9579;49.488;8.226;2023-05-10T04:14:36;2.90;;;2.60;;
18893;SDS011;9579;49.488;8.226;2023-05-10T04:17:23;2.20;;;2.10;;
18893;SDS011;9579;49.488;8.226;2023-05-10T04:23:53;3.13;;;2.50;;
18893;SDS011;9579;49.488;8.226;2023-05-10T04:26:40;2.90;;;2.70;;
18893;SDS011;9579;49.488;8.226;2023-05-10T04:29:27;2.70;;;2.50;;
18893;SDS011;9579;49.488;8.226;2023-05-10T04:32:16;2.80;;;2.60;;
18893;SDS011;9579;49.488;8.226;2023-05-10T04:35:13;3.30;;;2.77;;
18893;SDS011;9579;49.488;8.226;2023-05-10T04:38:00;2.90;;;2.60;;
18893;SDS011;9579;49.488;8.226;2023-05-10T04:40:47;3.27;;;2.60;;
18893;SDS011;9579;49.488;8.226;2023-05-10T04:43:40;3.60;;;3.30;;
18893;SDS011;9579;49.488;8.226;2023-05-10T04:46:28;3.20;;;3.00;;
18893;SDS011;9579;49.488;8.226;2023-05-10T04:49:17;3.20;;;3.00;;
18893;SDS011;9579;49.488;8.226;2023-05-10T04:52:04;3.40;;;3.10;;
18893;SDS011;9579;49.488;8.226;2023-05-10T04:54:51;3.50;;;3.30;;
18893;SDS011;9579;49.488;8.226;2023-05-10T04:57:38;3.70;;;3.40;;
18893;SDS011;9579;49.488;8.226;2023-05-10T05:00:25;3.50;;;3.30;;
18893;SDS011;9579;49.488;8.226;2023-05-10T05:03:12;3.70;;;3.40;;
18893;SDS011;9579;49.488;8.226;2023-05-10T05:06:07;4.60;;;4.20;;
18893;SDS011;9579;49.488;8.226;2023-05-10T05:08:54;3.80;;;3.60;;
18893;SDS011;9579;49.488;8.226;2023-05-10T05:11:41;4.50;;;4.10;;
18893;SDS011;9579;49.488;8.226;2023-05-10T05:14:28;3.90;;;3.67;;
18893;SDS011;9579;49.488;8.226;2023-05-10T05:17:15;3.90;;;3.60;;
18893;SDS011;9579;49.488;8.226;2023-05-10T05:20:03;3.63;;;3.33;;
18893;SDS011;9579;49.488;8.226;2023-05-10T05:22:52;2.95;;;2.75;;
18893;SDS011;9579;49.488;8.226;2023-05-10T05:25:39;2.80;;;2.60;;
18893;SDS011;9579;49.488;8.226;2023-05-10T05:28:27;2.60;;;2.50;;
18893;SDS011;9579;49.488;8.226;2023-05-10T05:31:18;2.78;;;2.55;;
18893;SDS011;9579;49.488;8.226;2023-05-10T05:34:05;2.67;;;2.20;;
18893;SDS011;9579;49.488;8.226;2023-05-10T05:36:52;2.00;;;1.90;;
18893;SDS011;9579;49.488;8.226;2023-05-10T05:39:40;2.47;;;1.90;;
18893;SDS011;9579;49.488;8.226;2023-05-10T05:42:27;1.90;;;1.70;;
18893;SDS011;9579;49.488;8.226;2023-05-10T05:45:15;2.03;;;1.92;;
18893;SDS011;9579;49.488;8.226;2023-05-10T05:48:02;4.63;;;3.40;;
18893;SDS011;9579;49.488;8.226;2023-05-10T05:50:49;1.90;;;1.80;;
18893;SDS011;9579;49.488;8.226;2023-05-10T05:53:36;3.25;;;1.98;;
18893;SDS011;9579;49.488;8.226;2023-05-10T05:56:25;2.20;;;1.80;;
18893;SDS011;9579;49.488;8.226;2023-05-10T05:59:12;1.80;;;1.70;;
18893;SDS011;9579;49.488;8.226;2023-05-10T06:01:59;1.77;;;1.67;;
18893;SDS011;9579;49.488;8.226;2023-05-10T06:04:46;1.80;;;1.70;;
18893;SDS011;9579;49.488;8.226;2023-05-10T06:07:33;1.70;;;1.60;;
18893;SDS011;9579;49.488;8.226;2023-05-10T06:10:20;2.15;;;1.90;;
18893;SDS011;9579;49.488;8.226;2023-05-10T06:13:08;1.88;;;1.77;;
18893;SDS011;9579;49.488;8.226;2023-05-10T06:15:56;1.92;;;1.80;;
18893;SDS011;9579;49.488;8.226;2023-05-10T06:18:43;1.88;;;1.70;;
18893;SDS011;9579;49.488;8.226;2023-05-10T06:21:30;1.60;;;1.50;;
18893;SDS011;9579;49.488;8.226;2023-05-10T06:24:17;1.77;;;1.60;;
18893;SDS011;9579;49.488;8.226;2023-05-10T06:27:04;1.70;;;1.60;;
18893;SDS011;9579;49.488;8.226;2023-05-10T06:29:53;2.13;;;1.50;;
18893;SDS011;9579;49.488;8.226;2023-05-10T06:32:40;1.50;;;1.40;;
18893;SDS011;9579;49.488;8.226;2023-05-10T06:35:29;1.30;;;1.30;;
18893;SDS011;9579;49.488;8.226;2023-05-10T06:38:16;1.40;;;1.30;;
18893;SDS011;9579;49.488;8.226;2023-05-10T06:41:03;2.13;;;1.58;;
18893;SDS011;9579;49.488;8.226;2023-05-10T06:43:50;2.03;;;1.65;;
18893;SDS011;9579;49.488;8.226;2023-05-10T06:46:39;1.35;;;1.27;;
18893;SDS011;9579;49.488;8.226;2023-05-10T06:49:26;2.08;;;1.42;;
18893;SDS011;9579;49.488;8.226;2023-05-10T06:52:13;1.60;;;1.50;;
18893;SDS011;9579;49.488;8.226;2023-05-10T06:55:00;1.65;;;1.30;;
18893;SDS011;9579;49.488;8.226;2023-05-10T06:57:48;1.60;;;1.50;;
18893;SDS011;9579;49.488;8.226;2023-05-10T07:00:35;1.50;;;1.40;;
18893;SDS011;9579;49.488;8.226;2023-05-10T07:03:26;1.60;;;1.50;;
18893;SDS011;9579;49.488;8.226;2023-05-10T07:06:13;1.70;;;1.60;;
18893;SDS011;9579;49.488;8.226;2023-05-10T07:09:01;2.15;;;1.55;;
18893;SDS011;9579;49.488;8.226;2023-05-10T07:11:48;1.80;;;1.70;;
18893;SDS011;9579;49.488;8.226;2023-05-10T07:14:35;2.13;;;1.55;;
18893;SDS011;9579;49.488;8.226;2023-05-10T07:17:22;2.15;;;1.80;;
18893;SDS011;9579;49.488;8.226;2023-05-10T07:20:13;2.15;;;1.50;;
18893;SDS011;9579;49.488;8.226;2023-05-10T07:23:00;1.60;;;1.50;;
18893;SDS011;9579;49.488;8.226;2023-05-10T07:25:47;1.70;;;1.60;;
18893;SDS011;9579;49.488;8.226;2023-05-10T07:28:36;2.30;;;1.50;;
18893;SDS011;9579;49.488;8.226;2023-05-10T07:31:24;1.50;;;1.40;;
18893;SDS011;9579;49.488;8.226;2023-05-10T07:34:11;2.55;;;1.30;;
18893;SDS011;9579;49.488;8.226;2023-05-10T07:36:59;2.28;;;1.70;;
18893;SDS011;9579;49.488;8.226;2023-05-10T07:39:47;1.90;;;1.27;;
18893;SDS011;9579;49.488;8.226;2023-05-10T07:42:34;1.48;;;1.38;;
18893;SDS011;9579;49.488;8.226;2023-05-10T07:45:21;1.40;;;1.30;;
18893;SDS011;9579;49.488;8.226;2023-05-10T07:48:08;1.75;;;1.20;;
18893;SDS011;9579;49.488;8.226;2023-05-10T07:50:58;1.10;;;1.10;;
18893;SDS011;9579;49.488;8.226;2023-05-10T07:53:46;1.55;;;1.30;;
18893;SDS011;9579;49.488;8.226;2023-05-10T07:56:33;1.20;;;1.10;;
18893;SDS011;9579;49.488;8.226;2023-05-10T07:59:21;1.45;;;1.20;;
18893;SDS011;9579;49.488;8.226;2023-05-10T08:02:08;1.50;;;1.40;;
18893;SDS011;9579;49.488;8.226;2023-05-10T08:04:55;1.23;;;1.15;;
18893;SDS011;9579;49.488;8.226;2023-05-10T08:07:42;1.98;;;1.33;;
18893;SDS011;9579;49.488;8.226;2023-05-10T08:10:31;1.30;;;1.20;;
18893;SDS011;9579;49.488;8.226;2023-05-10T08:13:18;1.80;;;1.48;;
18893;SDS011;9579;49.488;8.226;2023-05-10T08:16:05;1.83;;;1.40;;
18893;SDS011;9579;49.488;8.226;2023-05-10T08:18:52;1.50;;;1.40;;
18893;SDS011;9579;49.488;8.226;2023-05-10T08:21:40;1.52;;;1.42;;
18893;SDS011;9579;49.488;8.226;2023-05-10T08:24:27;2.30;;;1.30;;
18893;SDS011;9579;49.488;8.226;2023-05-10T08:27:16;1.60;;;1.50;;
18893;SDS011;9579;49.488;8.226;2023-05-10T08:30:03;1.70;;;1.60;;
18893;SDS011;9579;49.488;8.226;2023-05-10T08:32:51;1.70;;;1.60;;
18893;SDS011;9579;49.488;8.226;2023-05-10T08:35:38;2.03;;;1.73;;
18893;SDS011;9579;49.488;8.226;2023-05-10T08:38:25;1.67;;;1.58;;
18893;SDS011;9579;49.488;8.226;2023-05-10T08:41:12;1.60;;;1.50;;
18893;SDS011;9579;49.488;8.226;2023-05-10T08:44:02;1.88;;;1.50;;
18893;SDS011;9579;49.488;8.226;2023-05-10T08:46:50;1.88;;;1.42;;
18893;SDS011;9579;49.488;8.226;2023-05-10T08:49:40;1.88;;;1.50;;
18893;SDS011;9579;49.488;8.226;2023-05-10T08:52:29;1.70;;;1.60;;
18893;SDS011;9579;49.488;8.226;2023-05-10T08:55:17;1.55;;;1.45;;
18893;SDS011;9579;49.488;8.226;2023-05-10T08:58:05;1.50;;;1.40;;
18893;SDS011;9579;49.488;8.226;2023-05-10T09:00:53;1.70;;;1.40;;
18893;SDS011;9579;49.488;8.226;2023-05-10T09:03:41;1.27;;;1.20;;
18893;SDS011;9579;49.488;8.226;2023-05-10T09:06:28;1.80;;;1.40;;
18893;SDS011;9579;49.488;8.226;2023-05-10T09:09:15;2.55;;;1.20;;
18893;SDS011;9579;49.488;8.226;2023-05-10T09:12:03;1.30;;;1.20;;
18893;SDS011;9579;49.488;8.226;2023-05-10T09:14:56;2.05;;;1.35;;
18893;SDS011;9579;49.488;8.226;2023-05-10T09:17:47;1.65;;;1.30;;
18893;SDS011;9579;49.488;8.226;2023-05-10T09:20:36;1.33;;;1.10;;
18893;SDS011;9579;49.488;8.226;2023-05-10T09:23:23;2.60;;;1.27;;
18893;SDS011;9579;49.488;8.226;2023-05-10T09:26:16;1.13;;;1.10;;
18893;SDS011;9579;49.488;8.226;2023-05-10T09:29:08;1.40;;;1.30;;
18893;SDS011;9579;49.488;8.226;2023-05-10T09:31:55;1.60;;;1.48;;
18893;SDS011;9579;49.488;8.226;2023-05-10T09:34:43;1.40;;;1.30;;
18893;SDS011;9579;49.488;8.226;2023-05-10T09:37:30;1.52;;;1.30;;
18893;SDS011;9579;49.488;8.226;2023-05-10T09:40:18;1.45;;;1.35;;
18893;SDS011;9579;49.488;8.226;2023-05-10T09:43:07;1.38;;;1.27;;
18893;SDS011;9579;49.488;8.226;2023-05-10T09:45:56;1.70;;;1.50;;
18893;SDS011;9579;49.488;8.226;2023-05-10T09:48:43;2.35;;;1.77;;
18893;SDS011;9579;49.488;8.226;2023-05-10T09:51:32;2.53;;;1.60;;
18893;SDS011;9579;49.488;8.226;2023-05-10T09:54:21;1.60;;;1.50;;
18893;SDS011;9579;49.488;8.226;2023-05-10T09:57:10;2.20;;;1.83;;
18893;SDS011;9579;49.488;8.226;2023-05-10T10:00:06;2.80;;;2.20;;
18893;SDS011;9579;49.488;8.226;2023-05-10T10:02:55;2.90;;;1.70;;
18893;SDS011;9579;49.488;8.226;2023-05-10T10:05:44;1.77;;;1.67;;
18893;SDS011;9579;49.488;8.226;2023-05-10T10:08:34;2.55;;;1.85;;
18893;SDS011;9579;49.488;8.226;2023-05-10T10:11:21;1.70;;;1.60;;
18893;SDS011;9579;49.488;8.226;2023-05-10T10:14:10;1.70;;;1.60;;
18893;SDS011;9579;49.488;8.226;2023-05-10T10:16:59;1.48;;;1.42;;
18893;SDS011;9579;49.488;8.226;2023-05-10T10:19:47;1.58;;;1.35;;
18893;SDS011;9579;49.488;8.226;2023-05-10T10:22:36;1.65;;;1.35;;
18893;SDS011;9579;49.488;8.226;2023-05-10T10:25:25;2.22;;;1.40;;
18893;SDS011;9579;49.488;8.226;2023-05-10T10:28:16;1.80;;;1.25;;
18893;SDS011;9579;49.488;8.226;2023-05-10T10:31:13;1.60;;;1.50;;
18893;SDS011;9579;49.488;8.226;2023-05-10T10:34:09;1.30;;;1.27;;
18893;SDS011;9579;49.488;8.226;2023-05-10T10:37:03;1.10;;;1.10;;
18893;SDS011;9579;49.488;8.226;2023-05-10T10:39:51;2.00;;;1.40;;
18893;SDS011;9579;49.488;8.226;2023-05-10T10:42:46;2.30;;;1.33;;
18893;SDS011;9579;49.488;8.226;2023-05-10T10:45:38;2.72;;;1.30;;
18893;SDS011;9579;49.488;8.226;2023-05-10T10:48:26;2.85;;;1.27;;
18893;SDS011;9579;49.488;8.226;2023-05-10T10:51:13;1.38;;;1.10;;
18893;SDS011;9579;49.488;8.226;2023-05-10T10:54:08;2.78;;;1.50;;
18893;SDS011;9579;49.488;8.226;2023-05-10T10:57:10;2.28;;;1.30;;
18893;SDS011;9579;49.488;8.226;2023-05-10T11:03:22;3.25;;;1.30;;
18893;SDS011;9579;49.488;8.226;2023-05-10T11:06:10;1.40;;;1.30;;
18893;SDS011;9579;49.488;8.226;2023-05-10T11:08:57;1.50;;;1.30;;
18893;SDS011;9579;49.488;8.226;2023-05-10T11:11:48;1.40;;;1.30;;
18893;SDS011;9579;49.488;8.226;2023-05-10T11:14:37;1.88;;;1.33;;
18893;SDS011;9579;49.488;8.226;2023-05-10T11:17:24;3.67;;;1.48;;
18893;SDS011;9579;49.488;8.226;2023-05-10T11:20:14;4.40;;;1.65;;
18893;SDS011;9579;49.488;8.226;2023-05-10T11:23:11;2.70;;;1.58;;
18893;SDS011;9579;49.488;8.226;2023-05-10T11:26:01;2.80;;;1.27;;
18893;SDS011;9579;49.488;8.226;2023-05-10T11:28:48;2.78;;;1.40;;
18893;SDS011;9579;49.488;8.226;2023-05-10T11:31:35;3.47;;;1.35;;
18893;SDS011;9579;49.488;8.226;2023-05-10T11:34:29;1.95;;;1.15;;
18893;SDS011;9579;49.488;8.226;2023-05-10T11:37:20;2.10;;;1.45;;
18893;SDS011;9579;49.488;8.226;2023-05-10T11:40:07;3.47;;;1.33;;
18893;SDS011;9579;49.488;8.226;2023-05-10T11:42:55;1.92;;;1.38;;
18893;SDS011;9579;49.488;8.226;2023-05-10T11:45:42;2.83;;;1.42;;
18893;SDS011;9579;49.488;8.226;2023-05-10T11:48:31;2.75;;;1.20;;
18893;SDS011;9579;49.488;8.226;2023-05-10T11:51:19;2.13;;;1.40;;
18893;SDS011;9579;49.488;8.226;2023-05-10T11:54:09;2.53;;;1.45;;
18893;SDS011;9579;49.488;8.226;2023-05-10T11:56:57;2.10;;;1.38;;
18893;SDS011;9579;49.488;8.226;2023-05-10T11:59:45;1.98;;;1.30;;
18893;SDS011;9579;49.488;8.226;2023-05-10T12:02:32;3.05;;;1.35;;
18893;SDS011;9579;49.488;8.226;2023-05-10T12:05:19;3.35;;;1.60;;
18893;SDS011;9579;49.488;8.226;2023-05-10T12:08:19;2.67;;;1.48;;
18893;SDS011;9579;49.488;8.226;2023-05-10T12:11:09;4.18;;;1.60;;
18893;SDS011;9579;49.488;8.226;2023-05-10T12:13:57;2.72;;;1.45;;
18893;SDS011;9579;49.488;8.226;2023-05-10T12:16:44;2.85;;;1.35;;
18893;SDS011;9579;49.488;8.226;2023-05-10T12:19:36;4.25;;;1.50;;
18893;SDS011;9579;49.488;8.226;2023-05-10T12:22:24;1.50;;;1.30;;
18893;SDS011;9579;49.488;8.226;2023-05-10T12:25:11;2.78;;;1.40;;
18893;SDS011;9579;49.488;8.226;2023-05-10T12:28:00;2.40;;;1.50;;
18893;SDS011;9579;49.488;8.226;2023-05-10T12:30:49;3.38;;;1.40;;
18893;SDS011;9579;49.488;8.226;2023-05-10T12:33:40;3.05;;;1.25;;
18893;SDS011;9579;49.488;8.226;2023-05-10T12:36:28;3.33;;;1.30;;
18893;SDS011;9579;49.488;8.226;2023-05-10T12:39:16;3.05;;;1.23;;
18893;SDS011;9579;49.488;8.226;2023-05-10T12:42:04;2.50;;;1.30;;
18893;SDS011;9579;49.488;8.226;2023-05-10T12:44:55;2.17;;;1.20;;
18893;SDS011;9579;49.488;8.226;2023-05-10T12:47:43;1.90;;;1.00;;
18893;SDS011;9579;49.488;8.226;2023-05-10T12:50:30;4.57;;;1.10;;
18893;SDS011;9579;49.488;8.226;2023-05-10T12:53:17;2.75;;;1.05;;
18893;SDS011;9579;49.488;8.226;2023-05-10T12:56:04;3.40;;;1.10;;
18893;SDS011;9579;49.488;8.226;2023-05-10T12:58:52;2.47;;;0.93;;
18893;SDS011;9579;49.488;8.226;2023-05-10T13:01:40;1.45;;;0.93;;
18893;SDS011;9579;49.488;8.226;2023-05-10T13:04:27;2.00;;;1.00;;
18893;SDS011;9579;49.488;8.226;2023-05-10T13:07:14;2.50;;;1.00;;
18893;SDS011;9579;49.488;8.226;2023-05-10T13:10:01;3.83;;;1.05;;
18893;SDS011;9579;49.488;8.226;2023-05-10T13:12:48;1.25;;;0.95;;
18893;SDS011;9579;49.488;8.226;2023-05-10T13:15:35;1.27;;;1.02;;
18893;SDS011;9579;49.488;8.226;2023-05-10T13:18:23;3.20;;;0.80;;
18893;SDS011;9579;49.488;8.226;2023-05-10T13:21:11;2.38;;;1.00;;
18893;SDS011;9579;49.488;8.226;2023-05-10T13:23:58;1.58;;;1.15;;
18893;SDS011;9579;49.488;8.226;2023-05-10T13:26:45;1.48;;;0.90;;
18893;SDS011;9579;49.488;8.226;2023-05-10T13:29:33;1.30;;;0.90;;
18893;SDS011;9579;49.488;8.226;2023-05-10T13:32:20;1.42;;;0.88;;
18893;SDS011;9579;49.488;8.226;2023-05-10T13:35:09;1.27;;;0.90;;
18893;SDS011;9579;49.488;8.226;2023-05-10T13:37:56;1.77;;;1.00;;
18893;SDS011;9579;49.488;8.226;2023-05-10T13:40:43;1.23;;;1.00;;
18893;SDS011;9579;49.488;8.226;2023-05-10T13:43:30;2.22;;;0.93;;
18893;SDS011;9579;49.488;8.226;2023-05-10T13:46:17;1.85;;;0.77;;
18893;SDS011;9579;49.488;8.226;2023-05-10T13:49:04;2.58;;;0.98;;
18893;SDS011;9579;49.488;8.226;2023-05-10T13:51:52;0.75;;;0.75;;
18893;SDS011;9579;49.488;8.226;2023-05-10T13:54:40;2.88;;;1.00;;
18893;SDS011;9579;49.488;8.226;2023-05-10T13:57:27;0.82;;;0.68;;
18893;SDS011;9579;49.488;8.226;2023-05-10T14:00:15;0.85;;;0.85;;
18893;SDS011;9579;49.488;8.226;2023-05-10T14:03:03;1.02;;;0.90;;
18893;SDS011;9579;49.488;8.226;2023-05-10T14:05:51;3.58;;;1.00;;
18893;SDS011;9579;49.488;8.226;2023-05-10T14:08:39;4.13;;;0.82;;
18893;SDS011;9579;49.488;8.226;2023-05-10T14:11:27;2.30;;;0.80;;
18893;SDS011;9579;49.488;8.226;2023-05-10T14:14:13;1.25;;;0.90;;
18893;SDS011;9579;49.488;8.226;2023-05-10T14:17:00;1.23;;;0.82;;
18893;SDS011;9579;49.488;8.226;2023-05-10T14:19:47;2.80;;;0.70;;
18893;SDS011;9579;49.488;8.226;2023-05-10T14:22:34;0.75;;;0.75;;
18893;SDS011;9579;49.488;8.226;2023-05-10T14:25:23;0.95;;;0.90;;
18893;SDS011;9579;49.488;8.226;2023-05-10T14:28:10;1.40;;;0.65;;
18893;SDS011;9579;49.488;8.226;2023-05-10T14:30:57;1.33;;;0.90;;
18893;SDS011;9579;49.488;8.226;2023-05-10T14:33:44;0.80;;;0.80;;
18893;SDS011;9579;49.488;8.226;2023-05-10T14:36:31;1.92;;;0.70;;
18893;SDS011;9579;49.488;8.226;2023-05-10T14:39:18;0.98;;;0.70;;
18893;SDS011;9579;49.488;8.226;2023-05-10T14:42:07;2.30;;;1.00;;
18893;SDS011;9579;49.488;8.226;2023-05-10T14:44:54;0.70;;;0.70;;
18893;SDS011;9579;49.488;8.226;2023-05-10T14:47:41;0.70;;;0.70;;
18893;SDS011;9579;49.488;8.226;2023-05-10T14:50:28;0.93;;;0.90;;
18893;SDS011;9579;49.488;8.226;2023-05-10T14:53:15;2.17;;;0.90;;
18893;SDS011;9579;49.488;8.226;2023-05-10T14:56:03;1.20;;;0.60;;
18893;SDS011;9579;49.488;8.226;2023-05-10T14:58:51;1.98;;;0.90;;
18893;SDS011;9579;49.488;8.226;2023-05-10T15:01:38;1.27;;;0.82;;
18893;SDS011;9579;49.488;8.226;2023-05-10T15:04:27;1.40;;;0.88;;
18893;SDS011;9579;49.488;8.226;2023-05-10T15:07:14;2.20;;;1.00;;
18893;SDS011;9579;49.488;8.226;2023-05-10T15:10:02;1.48;;;0.90;;
18893;SDS011;9579;49.488;8.226;2023-05-10T15:12:50;0.88;;;0.80;;
18893;SDS011;9579;49.488;8.226;2023-05-10T15:15:39;1.20;;;1.05;;
18893;SDS011;9579;49.488;8.226;2023-05-10T15:18:26;0.98;;;0.88;;
18893;SDS011;9579;49.488;8.226;2023-05-10T15:21:13;1.83;;;0.82;;
18893;SDS011;9579;49.488;8.226;2023-05-10T15:24:00;1.08;;;0.90;;
18893;SDS011;9579;49.488;8.226;2023-05-10T15:26:47;1.30;;;0.88;;
18893;SDS011;9579;49.488;8.226;2023-05-10T15:29:34;1.63;;;0.80;;
18893;SDS011;9579;49.488;8.226;2023-05-10T15:32:22;1.38;;;0.88;;
18893;SDS011;9579;49.488;8.226;2023-05-10T15:35:09;1.20;;;1.10;;
18893;SDS011;9579;49.488;8.226;2023-05-10T15:37:56;3.20;;;1.30;;
18893;SDS011;9579;49.488;8.226;2023-05-10T15:40:44;0.90;;;0.90;;
18893;SDS011;9579;49.488;8.226;2023-05-10T15:43:31;1.10;;;1.00;;
18893;SDS011;9579;49.488;8.226;2023-05-10T15:46:18;2.42;;;0.80;;
18893;SDS011;9579;49.488;8.226;2023-05-10T15:49:06;1.42;;;1.00;;
18893;SDS011;9579;49.488;8.226;2023-05-10T15:51:53;1.33;;;0.88;;
18893;SDS011;9579;49.488;8.226;2023-05-10T15:54:40;2.10;;;0.93;;
18893;SDS011;9579;49.488;8.226;2023-05-10T15:57:27;2.22;;;0.90;;
18893;SDS011;9579;49.488;8.226;2023-05-10T16:00:15;1.65;;;0.95;;
18893;SDS011;9579;49.488;8.226;2023-05-10T16:03:03;2.70;;;0.90;;
18893;SDS011;9579;49.488;8.226;2023-05-10T16:05:52;0.80;;;0.80;;
18893;SDS011;9579;49.488;8.226;2023-05-10T16:08:39;1.13;;;0.73;;
18893;SDS011;9579;49.488;8.226;2023-05-10T16:11:26;3.70;;;0.90;;
18893;SDS011;9579;49.488;8.226;2023-05-10T16:14:13;0.85;;;0.85;;
18893;SDS011;9579;49.488;8.226;2023-05-10T16:17:00;1.33;;;0.98;;
18893;SDS011;9579;49.488;8.226;2023-05-10T16:19:48;0.90;;;0.90;;
18893;SDS011;9579;49.488;8.226;2023-05-10T16:22:36;0.95;;;0.90;;
18893;SDS011;9579;49.488;8.226;2023-05-10T16:25:23;2.15;;;1.10;;
18893;SDS011;9579;49.488;8.226;2023-05-10T16:28:10;1.55;;;1.10;;
18893;SDS011;9579;49.488;8.226;2023-05-10T16:30:57;0.80;;;0.80;;
18893;SDS011;9579;49.488;8.226;2023-05-10T16:33:44;1.65;;;0.88;;
18893;SDS011;9579;49.488;8.226;2023-05-10T16:36:31;0.98;;;0.90;;
18893;SDS011;9579;49.488;8.226;2023-05-10T16:39:20;0.77;;;0.77;;
18893;SDS011;9579;49.488;8.226;2023-05-10T16:42:07;3.08;;;0.80;;
18893;SDS011;9579;49.488;8.226;2023-05-10T16:44:54;1.65;;;0.80;;
18893;SDS011;9579;49.488;8.226;2023-05-10T16:47:41;0.93;;;0.80;;
18893;SDS011;9579;49.488;8.226;2023-05-10T16:50:28;1.08;;;1.00;;
18893;SDS011;9579;49.488;8.226;2023-05-10T16:53:15;2.10;;;1.08;;
18893;SDS011;9579;49.488;8.226;2023-05-10T16:56:04;1.70;;;0.90;;
18893;SDS011;9579;49.488;8.226;2023-05-10T16:58:51;1.17;;;0.65;;
18893;SDS011;9579;49.488;8.226;2023-05-10T17:01:38;2.25;;;0.95;;
18893;SDS011;9579;49.488;8.226;2023-05-10T17:04:25;0.70;;;0.70;;
18893;SDS011;9579;49.488;8.226;2023-05-10T17:07:12;1.38;;;0.90;;
18893;SDS011;9579;49.488;8.226;2023-05-10T17:10:00;2.28;;;0.70;;
18893;SDS011;9579;49.488;8.226;2023-05-10T17:12:48;0.88;;;0.88;;
18893;SDS011;9579;49.488;8.226;2023-05-10T17:15:35;0.93;;;0.80;;
18893;SDS011;9579;49.488;8.226;2023-05-10T17:18:22;1.15;;;0.80;;
18893;SDS011;9579;49.488;8.226;2023-05-10T17:21:10;1.05;;;0.88;;
18893;SDS011;9579;49.488;8.226;2023-05-10T17:23:57;1.20;;;0.70;;
18893;SDS011;9579;49.488;8.226;2023-05-10T17:26:44;1.80;;;0.77;;
18893;SDS011;9579;49.488;8.226;2023-05-10T17:29:33;0.70;;;0.70;;
18893;SDS011;9579;49.488;8.226;2023-05-10T17:32:20;0.82;;;0.70;;
18893;SDS011;9579;49.488;8.226;2023-05-10T17:35:07;0.70;;;0.70;;
18893;SDS011;9579;49.488;8.226;2023-05-10T17:37:54;0.68;;;0.60;;
18893;SDS011;9579;49.488;8.226;2023-05-10T17:40:41;0.90;;;0.50;;